Time;durP1;ratioP1;P1;durP2;ratioP2;P2;SDS_P1;SDS_P2;PMS_P1;PMS_P2;Temp;Humidity;BMP_temperature;BMP_pressure;BME280_temperature;BME280_humidity;BME280_pressure;Samples;Min_cycle;Max_cycle;Signal;HPM_P1;HPM_P2
2022/01/25 00:28:48;;;;;;;18.60;9.07;;;;;;;-0.92;86.08;100475.25;5094347;28;20071;-62
2022/01/25 00:31:37;;;;;;;19.95;8.93;;;;;;;-0.62;84.45;100476.25;5093963;28;20047;-61
2022/01/25 00:34:23;;;;;;;20.55;9.07;;;;;;;-0.79;84.39;100473.63;5093878;28;20047;-61
2022/01/25 00:37:09;;;;;;;22.27;9.90;;;;;;;-0.62;84.52;100478.00;5094266;28;20087;-61
2022/01/25 00:39:54;;;;;;;20.40;9.40;;;;;;;-0.79;85.37;100473.63;5093946;28;20062;-61
2022/01/25 00:42:40;;;;;;;19.90;8.95;;;;;;;-0.75;85.62;100471.91;5092742;28;20399;-61
2022/01/25 00:45:28;;;;;;;16.27;8.07;;;;;;;-0.53;86.79;100472.88;5093746;28;20063;-61
2022/01/25 00:48:19;;;;;;;18.60;8.75;;;;;;;-0.47;85.48;100469.47;5092899;28;20051;-61
2022/01/25 00:56:52;;;;;;;16.15;8.25;;;;;;;-0.02;84.69;100463.59;5093815;28;20067;-62
2022/01/25 00:59:37;;;;;;;22.48;9.20;;;;;;;0.07;83.09;100460.19;5093629;28;20055;-61
2022/01/25 01:02:23;;;;;;;17.10;9.02;;;;;;;-0.38;84.89;100473.81;5093562;28;20047;-62
2022/01/25 01:05:10;;;;;;;23.75;9.95;;;;;;;-0.61;86.20;100466.84;5093409;28;20067;-62
2022/01/25 01:07:55;;;;;;;14.98;8.35;;;;;;;-0.64;87.53;100465.09;5098470;28;20043;-60
2022/01/25 01:10:42;;;;;;;17.25;8.45;;;;;;;-0.43;86.57;100460.91;5093489;28;20063;-62
2022/01/25 01:13:52;;;;;;;15.88;7.95;;;;;;;-0.23;85.69;100451.53;5093108;28;20063;-62
2022/01/25 01:17:07;;;;;;;19.58;9.02;;;;;;;-0.05;83.39;100456.72;5092403;28;20043;-62
2022/01/25 01:37:55;;;;;;;22.45;10.02;;;;;;;-0.29;85.26;100437.75;5091722;28;20059;-62
2022/01/25 01:41:17;;;;;;;18.25;9.38;;;;;;;-0.30;85.27;100435.19;5092676;28;20051;-61
2022/01/25 01:43:54;;;;;;;19.60;9.90;;;;;;;-0.30;85.55;100420.59;5078717;28;20048;-61
2022/01/25 01:46:55;;;;;;;22.05;10.18;;;;;;;-0.26;84.78;100427.47;5072605;28;20079;-61
2022/01/25 01:49:44;;;;;;;20.87;10.23;;;;;;;-0.52;85.67;100425.66;5081796;28;20047;-62
2022/01/25 01:52:29;;;;;;;18.42;7.82;;;;;;;-0.25;85.40;100415.44;5098603;28;20781;-61
2022/01/25 01:55:15;;;;;;;20.58;9.27;;;;;;;-0.59;85.85;100420.50;5092705;28;20055;-62
2022/01/25 01:58:02;;;;;;;21.35;9.93;;;;;;;-0.58;85.63;100406.75;5092662;28;20051;-61
2022/01/25 02:00:48;;;;;;;18.65;9.18;;;;;;;-0.75;87.54;100381.78;5092742;28;20047;-61
2022/01/25 02:03:34;;;;;;;17.27;8.63;;;;;;;-0.46;86.39;100383.63;5092560;28;20067;-62
2022/01/25 02:06:20;;;;;;;18.98;8.30;;;;;;;-0.36;85.04;100401.69;5092292;28;20047;-61
2022/01/25 02:09:08;;;;;;;17.67;8.60;;;;;;;-0.18;84.06;100400.88;5092383;28;20397;-61
2022/01/25 02:11:54;;;;;;;17.08;9.00;;;;;;;-0.28;83.83;100394.84;5092759;28;20059;-61
2022/01/25 02:14:41;;;;;;;17.65;8.82;;;;;;;-0.29;83.76;100396.53;5092987;28;20400;-62
2022/01/25 02:23:23;;;;;;;15.88;8.40;;;;;;;-0.55;87.08;100378.44;5098616;28;20127;-60
2022/01/25 02:26:10;;;;;;;19.80;9.48;;;;;;;-0.03;84.77;100387.13;5097354;28;20054;-60
2022/01/25 02:28:56;;;;;;;22.02;9.77;;;;;;;-0.43;85.79;100378.50;5092371;28;20400;-60
2022/01/25 02:31:41;;;;;;;18.95;9.30;;;;;;;-0.58;87.00;100374.16;5092164;28;20055;-61
2022/01/25 02:34:27;;;;;;;21.67;10.05;;;;;;;-0.72;86.76;100335.50;5092442;28;20498;-61
2022/01/25 02:37:14;;;;;;;22.25;11.07;;;;;;;-0.57;87.40;100370.72;5091863;28;20044;-60
2022/01/25 02:40:00;;;;;;;21.10;9.77;;;;;;;-0.43;86.73;100364.75;5091877;28;20048;-61
2022/01/25 02:42:46;;;;;;;30.83;13.80;;;;;;;-0.48;86.91;100362.16;5091901;28;20415;-62
2022/01/25 02:45:35;;;;;;;22.50;11.20;;;;;;;-0.45;86.82;100369.03;5092186;28;20044;-61
2022/01/25 02:48:30;;;;;;;21.42;10.48;;;;;;;-0.31;86.11;100363.94;5091715;28;20044;-60
2022/01/25 02:51:16;;;;;;;20.02;9.77;;;;;;;-0.19;84.64;100355.34;5092179;28;20480;-62
2022/01/25 02:54:04;;;;;;;18.73;9.00;;;;;;;-0.54;85.51;100360.41;5091964;28;20063;-61
2022/01/25 02:56:49;;;;;;;23.40;10.30;;;;;;;-0.69;86.77;100352.66;5092002;28;20114;-61
2022/01/25 02:59:35;;;;;;;18.80;8.82;;;;;;;-0.60;87.54;100360.41;5092067;28;20040;-61
2022/01/25 03:02:21;;;;;;;22.27;10.60;;;;;;;-0.80;88.14;100348.31;5090986;28;20506;-59
2022/01/25 03:05:07;;;;;;;20.08;9.77;;;;;;;-0.40;87.12;100339.88;5092379;28;20056;-64
2022/01/25 03:07:54;;;;;;;20.05;10.15;;;;;;;-0.07;85.54;100345.06;5071120;28;20063;-61
2022/01/25 03:10:43;;;;;;;24.67;10.80;;;;;;;-0.41;85.79;100345.00;5077567;28;20044;-61
2022/01/25 03:13:35;;;;;;;16.23;8.82;;;;;;;-0.50;87.59;100345.84;5071695;28;20040;-62
2022/01/25 03:16:34;;;;;;;23.95;10.98;;;;;;;-0.51;87.34;100346.72;5072150;28;20052;-62
2022/01/25 03:25:26;;;;;;;21.33;11.30;;;;;;;-0.54;87.68;100332.09;5071542;28;20072;-61
2022/01/25 03:28:12;;;;;;;23.75;10.73;;;;;;;-0.59;88.15;100345.81;5071320;28;20060;-61
2022/01/25 03:30:57;;;;;;;21.95;11.20;;;;;;;-0.58;87.97;100339.81;5071858;28;20049;-62
2022/01/25 03:33:44;;;;;;;24.20;9.30;;;;;;;-0.36;87.68;100338.16;5071550;28;20052;-61
2022/01/25 03:36:30;;;;;;;19.00;9.20;;;;;;;0.04;85.68;100341.59;5076100;28;20056;-61
2022/01/25 03:39:16;;;;;;;17.27;9.93;;;;;;;-0.07;84.47;100342.47;5072973;28;20059;-61
2022/01/25 03:42:06;;;;;;;24.13;10.45;;;;;;;-0.29;85.85;100337.31;5086962;28;20411;-60
2022/01/25 03:44:52;;;;;;;18.02;9.45;;;;;;;-0.07;85.93;100341.63;5101230;28;20044;-61
2022/01/25 03:50:45;;;;;;;19.17;9.35;;;;;;;0.24;83.13;100329.56;5093452;28;20047;-62
2022/01/25 03:53:31;;;;;;;22.05;10.13;;;;;;;-0.21;85.32;100319.25;5094050;28;20051;-61
2022/01/25 03:56:16;;;;;;;20.75;8.93;;;;;;;-0.13;85.45;100329.56;5100964;28;20499;-61
2022/01/25 03:59:05;;;;;;;19.20;9.88;;;;;;;0.25;83.88;100312.38;5094741;28;20050;-61
2022/01/25 04:01:51;;;;;;;23.73;10.00;;;;;;;0.27;83.43;100320.13;5094553;28;20059;-60
2022/01/25 04:04:37;;;;;;;16.52;9.63;;;;;;;0.21;83.03;100326.16;5094995;28;20502;-61
2022/01/25 04:07:31;;;;;;;23.42;10.52;;;;;;;-0.08;85.18;100321.88;5100948;28;20074;-61
2022/01/25 04:10:18;;;;;;;20.20;9.88;;;;;;;0.18;84.21;100316.69;5094347;28;20475;-61
2022/01/25 04:13:04;;;;;;;24.63;10.65;;;;;;;0.01;84.11;100305.53;5094892;28;20066;-61
2022/01/25 04:15:53;;;;;;;23.73;12.00;;;;;;;-0.04;84.83;100302.97;5095359;28;20055;-60
2022/01/25 04:25:07;;;;;;;15.98;8.60;;;;;;;0.49;82.97;100306.31;5100649;28;20051;-60
2022/01/25 04:27:53;;;;;;;18.23;9.48;;;;;;;0.59;81.99;100306.31;5094203;28;20055;-60
2022/01/25 04:30:39;;;;;;;21.08;10.65;;;;;;;0.47;81.79;100290.00;5094363;28;20055;-61
2022/01/25 04:33:28;;;;;;;19.27;9.55;;;;;;;0.55;81.28;100302.91;5100340;28;20055;-60
2022/01/25 04:36:52;;;;;;;17.75;9.20;;;;;;;0.42;82.26;100296.03;5094319;28;20525;-60
2022/01/25 04:57:45;;;;;;;22.88;10.45;;;;;;;-0.03;83.62;100282.34;5093449;28;20055;-60
2022/01/25 05:00:32;;;;;;;22.05;10.52;;;;;;;-0.36;85.19;100271.19;5093116;28;20052;-60
2022/01/25 05:03:25;;;;;;;22.85;10.13;;;;;;;-0.36;85.85;100272.91;5093484;28;20054;-61
2022/01/25 05:06:15;;;;;;;23.52;10.80;;;;;;;-0.19;85.66;100291.78;5093609;28;20052;-61
2022/01/25 05:09:10;;;;;;;23.60;10.32;;;;;;;-0.24;85.64;100285.78;5093723;28;20507;-61
2022/01/25 05:11:58;;;;;;;22.25;10.85;;;;;;;-0.52;86.72;100284.03;5093473;28;20056;-61
2022/01/25 05:15:06;;;;;;;22.15;10.95;;;;;;;-0.89;88.54;100297.69;5093435;28;20052;-61
2022/01/25 05:18:12;;;;;;;24.73;10.65;;;;;;;-0.85;86.92;100298.56;5092751;28;20044;-62
2022/01/25 05:24:02;;;;;;;21.80;9.80;;;;;;;-0.77;85.95;100286.56;5093362;28;20051;-60
2022/01/25 05:26:48;;;;;;;24.80;11.05;;;;;;;-0.65;86.02;100288.31;5092378;28;20055;-60
2022/01/25 05:29:34;;;;;;;23.17;10.73;;;;;;;-0.45;86.11;100287.47;5072244;28;20480;-60
2022/01/25 05:32:20;;;;;;;18.00;9.25;;;;;;;-0.30;84.93;100278.91;5072285;28;20480;-62
2022/01/25 05:35:06;;;;;;;18.23;9.85;;;;;;;-0.05;84.93;100285.78;5072111;28;20048;-61
2022/01/25 05:37:52;;;;;;;20.90;10.35;;;;;;;-0.10;85.09;100282.34;5071807;28;20052;-61
2022/01/25 05:40:56;;;;;;;19.30;9.13;;;;;;;-0.03;86.04;100286.63;5073993;28;20429;-59
2022/01/25 05:49:45;;;;;;;18.88;9.30;;;;;;;-0.74;85.46;100257.41;5071776;28;20055;-61
2022/01/25 05:52:31;;;;;;;17.67;9.40;;;;;;;-0.45;85.70;100290.06;5072198;28;20043;-60
2022/01/25 05:55:16;;;;;;;17.20;8.73;;;;;;;-0.17;83.68;100289.22;5072133;28;20056;-58
2022/01/25 05:58:02;;;;;;;19.27;9.80;;;;;;;-0.20;82.97;100278.91;5071833;28;20400;-59
2022/01/25 06:00:49;;;;;;;18.23;9.75;;;;;;;-0.17;83.46;100281.47;5071959;28;20415;-60
2022/01/25 06:03:34;;;;;;;17.45;8.52;;;;;;;0.08;82.45;100271.19;5077364;28;20060;-59
2022/01/25 06:06:20;;;;;;;22.02;10.23;;;;;;;-0.03;83.44;100284.03;5072018;28;20067;-59
2022/01/25 06:09:06;;;;;;;23.25;9.50;;;;;;;-0.31;85.04;100255.72;5071028;28;20048;-59
2022/01/25 06:11:53;;;;;;;16.60;8.32;;;;;;;0.06;84.65;100278.91;5072293;28;20055;-58
2022/01/25 06:14:39;;;;;;;18.67;8.32;;;;;;;0.33;83.41;100282.28;5085202;28;20075;-59
2022/01/25 06:17:24;;;;;;;20.27;9.38;;;;;;;0.26;82.51;100278.03;5072238;28;20059;-59
2022/01/25 06:20:10;;;;;;;20.52;10.23;;;;;;;0.36;82.15;100279.72;5070609;28;20063;-61
2022/01/25 06:22:56;;;;;;;19.48;9.02;;;;;;;0.18;82.34;100272.03;5072298;28;20093;-62
2022/01/25 06:25:42;;;;;;;19.17;8.40;;;;;;;0.23;82.59;100259.97;5071855;28;20052;-59
2022/01/25 06:28:28;;;;;;;18.92;8.98;;;;;;;0.25;82.39;100253.09;5071876;28;20052;-58
2022/01/25 06:31:15;;;;;;;16.20;8.38;;;;;;;0.42;82.44;100267.66;5071454;28;20051;-58
2022/01/25 06:34:01;;;;;;;22.25;10.52;;;;;;;0.40;82.00;100261.66;5070384;28;20052;-59
2022/01/25 06:36:47;;;;;;;20.15;9.30;;;;;;;0.28;82.76;100268.56;5071911;28;20055;-59
2022/01/25 06:39:32;;;;;;;23.52;9.43;;;;;;;0.24;82.38;100246.22;5072082;28;20479;-58
2022/01/25 06:42:19;;;;;;;21.15;9.57;;;;;;;0.18;83.20;100272.84;5091246;28;20503;-58
2022/01/25 06:45:12;;;;;;;20.73;8.93;;;;;;;0.10;83.00;100260.00;5090874;28;20059;-62
2022/01/25 06:47:58;;;;;;;19.05;9.10;;;;;;;-0.01;83.87;100261.72;5091706;28;20482;-60
2022/01/25 06:50:44;;;;;;;26.17;10.98;;;;;;;0.01;84.34;100269.44;5091606;28;20059;-62
2022/01/25 06:53:29;;;;;;;16.45;8.27;;;;;;;0.16;83.79;100268.59;5091548;28;20044;-61
2022/01/25 06:56:15;;;;;;;19.30;9.25;;;;;;;0.36;82.08;100261.66;5090197;28;20059;-66
2022/01/25 06:59:01;;;;;;;18.63;8.43;;;;;;;0.53;81.47;100262.47;5099236;28;20039;-59
2022/01/25 07:01:47;;;;;;;21.58;8.15;;;;;;;0.65;80.86;100261.59;5091570;28;20067;-59
2022/01/25 07:04:32;;;;;;;20.17;9.63;;;;;;;0.70;80.55;100263.25;5089158;28;20055;-58
2022/01/25 07:07:18;;;;;;;19.98;9.27;;;;;;;0.26;82.67;100262.56;5090424;28;20059;-59
2022/01/25 07:10:06;;;;;;;19.85;8.82;;;;;;;0.41;83.18;100263.38;5090858;28;20047;-62
2022/01/25 07:12:52;;;;;;;15.20;7.97;;;;;;;0.56;82.35;100258.16;5099869;28;20070;-60
2022/01/25 07:15:38;;;;;;;13.35;5.75;;;;;;;2.37;100.00;100265.56;5116948;28;20070;-62
2022/01/25 07:18:23;;;;;;;12.43;6.70;;;;;;;2.13;100.00;100267.50;5121743;28;20050;-62
2022/01/25 07:21:09;;;;;;;16.30;7.60;;;;;;;1.60;99.34;100264.50;5118999;28;20058;-63
2022/01/25 07:23:56;;;;;;;20.05;9.57;;;;;;;1.02;94.64;100258.84;5115757;28;20062;-63
2022/01/25 07:26:42;;;;;;;19.20;8.32;;;;;;;0.83;95.35;100252.91;5115509;28;20054;-60
2022/01/25 07:29:28;;;;;;;16.98;7.88;;;;;;;0.66;93.33;100237.50;5114732;28;20051;-61
2022/01/25 07:32:14;;;;;;;16.58;7.50;;;;;;;1.07;99.56;100249.34;5109573;28;20889;-62
2022/01/25 07:35:00;;;;;;;14.40;6.30;;;;;;;1.14;100.00;100247.59;5113800;28;20043;-60
2022/01/25 07:37:45;;;;;;;16.92;8.15;;;;;;;0.90;98.02;100256.31;5121179;28;20059;-58
2022/01/25 07:40:34;;;;;;;17.02;7.82;;;;;;;0.49;94.60;100248.72;5105308;28;20499;-59
2022/01/25 07:43:19;;;;;;;15.35;6.72;;;;;;;1.56;100.00;100249.03;5094472;28;20055;-52
2022/01/25 07:46:05;;;;;;;21.38;7.22;;;;;;;2.37;99.55;100263.81;5085210;28;20066;-58
2022/01/25 07:48:51;;;;;;;18.40;8.18;;;;;;;1.63;96.01;100261.06;5094747;28;20055;-59
2022/01/25 07:51:37;;;;;;;15.65;7.35;;;;;;;1.42;100.00;100264.63;5093641;28;20522;-59
2022/01/25 07:54:23;;;;;;;19.42;8.07;;;;;;;1.17;100.00;100245.00;5114286;28;20059;-59
2022/01/25 07:57:09;;;;;;;20.85;9.25;;;;;;;1.13;96.61;100263.09;5093853;28;20055;-59
2022/01/25 07:59:55;;;;;;;22.23;9.63;;;;;;;1.04;97.37;100249.38;5093327;28;21681;-60
2022/01/25 08:02:42;;;;;;;19.30;8.73;;;;;;;1.37;100.00;100256.06;5075952;28;20047;-59
2022/01/25 08:05:27;;;;;;;22.77;9.60;;;;;;;1.67;100.00;100265.31;5087935;28;21303;-59
2022/01/25 08:08:13;;;;;;;20.55;9.45;;;;;;;1.65;99.99;100261.88;5074893;28;20051;-59
2022/01/25 08:11:00;;;;;;;22.73;9.13;;;;;;;1.38;99.00;100257.75;5075773;28;20048;-58
2022/01/25 08:13:49;;;;;;;20.10;9.30;;;;;;;1.37;97.98;100225.94;5073119;28;20075;-59
2022/01/25 08:16:35;;;;;;;19.77;9.95;;;;;;;1.39;94.09;100251.75;5081128;28;20047;-59
2022/01/25 08:19:21;;;;;;;25.23;11.75;;;;;;;1.39;93.44;100250.00;5077463;28;20502;-59
2022/01/25 08:22:06;;;;;;;26.13;10.23;;;;;;;1.20;95.13;100260.47;5073764;28;20360;-60
2022/01/25 08:24:52;;;;;;;28.75;12.45;;;;;;;0.95;92.12;100260.59;5073889;28;20064;-62
2022/01/25 08:27:38;;;;;;;18.65;10.43;;;;;;;0.76;96.73;100253.78;5072887;28;20059;-60
2022/01/25 08:30:24;;;;;;;25.98;12.65;;;;;;;0.89;94.98;100246.84;5074058;28;20071;-60
2022/01/25 08:33:09;;;;;;;25.30;10.98;;;;;;;1.21;95.76;100248.38;5073469;28;20155;-61
2022/01/25 08:35:55;;;;;;;17.33;8.18;;;;;;;1.43;100.00;100246.56;5076987;28;20047;-59
2022/01/25 08:38:41;;;;;;;29.77;12.93;;;;;;;2.18;100.00;100255.41;5086623;28;20403;-60
2022/01/25 08:41:27;;;;;;;21.30;10.35;;;;;;;1.66;97.63;100250.69;5092034;28;20596;-58
2022/01/25 08:44:12;;;;;;;22.70;9.90;;;;;;;1.73;100.00;100248.88;5071987;28;20067;-57
2022/01/25 08:46:58;;;;;;;20.15;8.63;;;;;;;2.20;100.00;100256.25;5072010;28;20055;-60
2022/01/25 08:49:45;;;;;;;22.33;10.15;;;;;;;2.35;100.00;100250.03;5071612;28;20055;-58
2022/01/25 08:52:30;;;;;;;38.28;15.07;;;;;;;1.46;92.75;100236.19;5079068;28;20040;-65
2022/01/25 08:55:16;;;;;;;25.77;12.15;;;;;;;1.04;97.57;100239.03;5072775;28;20055;-62
2022/01/25 08:58:02;;;;;;;28.15;12.73;;;;;;;1.42;97.67;100246.56;5076918;28;20040;-60
2022/01/25 09:00:49;;;;;;;24.98;11.65;;;;;;;1.56;95.88;100249.03;5081812;28;20063;-57
2022/01/25 09:03:34;;;;;;;33.25;14.27;;;;;;;1.40;94.83;100240.53;5073285;28;20048;-65
2022/01/25 09:06:21;;;;;;;32.10;13.85;;;;;;;1.06;94.91;100237.28;5072935;28;20051;-70
2022/01/25 09:09:09;;;;;;;34.53;14.05;;;;;;;1.30;95.22;100240.59;5072111;28;20051;-65
2022/01/25 09:11:56;;;;;;;30.42;12.25;;;;;;;1.39;96.59;100234.50;5072384;28;20511;-61
2022/01/25 09:14:43;;;;;;;26.95;11.10;;;;;;;1.53;95.93;100244.75;5072869;28;20071;-47
2022/01/25 09:17:29;;;;;;;23.73;10.43;;;;;;;1.90;100.00;100245.31;5076799;28;20051;-61
2022/01/25 09:20:15;;;;;;;32.53;12.50;;;;;;;2.06;97.36;100251.19;5071839;28;20040;-62
2022/01/25 09:23:01;;;;;;;29.10;13.30;;;;;;;2.02;96.41;100231.41;5072600;28;20056;-62
2022/01/25 09:25:48;;;;;;;28.95;12.73;;;;;;;1.62;98.39;100240.41;5077549;28;20098;-62
2022/01/25 09:28:33;;;;;;;31.17;11.18;;;;;;;1.57;99.20;100249.03;5071544;28;20040;-60
2022/01/25 09:31:19;;;;;;;25.20;10.95;;;;;;;1.87;99.09;100242.75;5073834;28;20048;-61
2022/01/25 09:34:05;;;;;;;34.88;13.77;;;;;;;1.39;95.03;100252.59;5070809;28;20059;-63
2022/01/25 09:36:52;;;;;;;29.00;12.15;;;;;;;1.60;99.99;100242.97;5071380;28;20060;-61
2022/01/25 09:39:37;;;;;;;33.88;13.00;;;;;;;1.52;95.96;100232.69;5077109;28;20055;-62
2022/01/25 09:42:27;;;;;;;26.85;11.70;;;;;;;1.60;96.64;100223.16;5072612;28;20150;-62
2022/01/25 09:45:13;;;;;;;29.83;12.98;;;;;;;1.61;95.63;100234.34;5071974;28;20044;-61
2022/01/25 09:47:59;;;;;;;30.60;12.50;;;;;;;1.69;96.05;100217.06;5071940;28;20051;-61
2022/01/25 09:50:44;;;;;;;29.50;12.77;;;;;;;1.83;95.34;100216.94;5083167;28;20039;-62
2022/01/25 09:53:33;;;;;;;29.42;12.20;;;;;;;1.41;96.76;100217.28;5091626;28;20047;-60
2022/01/25 09:56:18;;;;;;;77.07;13.45;;;;;;;1.63;100.00;100208.50;5092644;28;20059;-64
2022/01/25 09:59:04;;;;;;;58.85;10.93;;;;;;;2.60;100.00;100200.59;5092380;28;20040;-60
2022/01/25 10:01:50;;;;;;;31.67;12.55;;;;;;;2.40;96.35;100218.97;5092485;28;20040;-61
2022/01/25 10:04:42;;;;;;;38.65;12.32;;;;;;;1.71;97.15;100197.22;5092905;28;20055;-62
2022/01/25 10:07:28;;;;;;;;;;;;;;;1.30;98.91;100213.91;5092895;28;20051;-61
2022/01/25 10:10:13;;;;;;;40.80;10.32;;;;;;;1.93;100.00;100204.78;5077682;28;19912;-61
2022/01/25 10:13:34;;;;;;;39.97;12.98;;;;;;;2.17;95.68;100202.81;5081099;28;20479;-60
2022/01/25 10:16:32;;;;;;;42.67;11.90;;;;;;;2.48;97.41;100203.34;5075414;28;20047;-63
2022/01/25 10:19:25;;;;;;;30.95;10.48;;;;;;;3.04;98.87;100195.69;5104001;28;20059;-59
2022/01/25 10:22:14;;;;;;;33.00;11.38;;;;;;;3.40;97.02;100202.06;5107857;28;20067;-60
2022/01/25 10:25:00;;;;;;;35.85;14.77;;;;;;;2.91;89.61;100205.38;5082301;28;20055;-53
2022/01/25 10:28:10;;;;;;;34.05;12.90;;;;;;;3.16;96.63;100186.91;5100077;28;20063;-61
2022/01/25 10:31:02;;;;;;;22.42;9.02;;;;;;;2.49;96.71;100190.38;5082502;28;20066;-62
2022/01/25 10:33:53;;;;;;;;;;;;;;;2.28;97.02;100202.72;5091999;28;20059;-61
2022/01/25 10:36:46;;;;;;;22.75;8.98;;;;;;;2.53;100.00;100193.81;5108901;28;19920;-60
2022/01/25 10:39:35;;;;;;;27.33;11.05;;;;;;;3.01;94.66;100180.22;5101826;28;20051;-59
2022/01/25 10:42:26;;;;;;;25.60;11.25;;;;;;;2.39;93.70;100175.84;5094959;28;20067;-62
2022/01/25 10:45:17;;;;;;;27.70;11.40;;;;;;;2.25;93.98;100171.72;5099417;28;20070;-63
2022/01/25 10:48:03;;;;;;;26.75;9.43;;;;;;;2.28;100.00;100170.81;5098936;28;20059;-63
2022/01/25 10:50:49;;;;;;;29.70;11.38;;;;;;;2.45;95.55;100174.03;5083900;28;20386;-60
2022/01/25 10:53:35;;;;;;;27.20;11.82;;;;;;;2.07;94.94;100181.34;5111475;28;20055;-61
2022/01/25 10:56:22;;;;;;;18.10;7.95;;;;;;;3.28;100.00;100166.88;5118236;28;20050;-43
2022/01/25 10:59:13;;;;;;;29.02;12.55;;;;;;;6.57;86.29;100168.22;5089747;28;20044;-66
2022/01/25 11:02:05;;;;;;;26.77;11.27;;;;;;;4.91;92.61;100160.28;5082776;28;20055;-65
2022/01/25 11:05:05;;;;;;;23.42;10.10;;;;;;;4.04;89.09;100162.97;5098121;28;20050;-63
2022/01/25 11:07:51;;;;;;;25.73;11.80;;;;;;;3.67;89.26;100163.63;5107153;28;20509;-63
2022/01/25 11:10:38;;;;;;;27.90;12.48;;;;;;;4.74;100.00;100155.47;5098984;28;20051;-66
2022/01/25 11:16:16;;;;;;;26.25;11.90;;;;;;;4.04;87.53;100147.41;5112278;28;20063;-60
2022/01/25 11:19:01;;;;;;;20.50;8.90;;;;;;;2.97;89.95;100151.78;5075315;28;20087;-62
2022/01/25 11:21:48;;;;;;;21.55;10.65;;;;;;;3.59;94.50;100158.56;5075080;28;20051;-64
2022/01/25 11:24:34;;;;;;;22.13;9.80;;;;;;;4.01;100.00;100152.63;5074891;28;20514;-66
2022/01/25 11:27:22;;;;;;;21.60;10.05;;;;;;;3.97;86.32;100143.19;5075534;28;20059;-67
2022/01/25 11:30:17;;;;;;;14.88;7.47;;;;;;;3.83;86.13;100146.06;5074914;28;20055;-66
2022/01/25 11:33:09;;;;;;;16.90;7.68;;;;;;;3.71;85.63;100147.13;5075179;28;20047;-63
2022/01/25 11:35:56;;;;;;;15.48;7.07;;;;;;;3.17;87.67;100136.78;5076099;28;20059;-60
2022/01/25 11:38:45;;;;;;;18.17;8.57;;;;;;;2.65;90.33;100141.00;5074123;28;20055;-66
2022/01/25 11:41:34;;;;;;;19.17;7.82;;;;;;;2.54;91.60;100121.31;5083161;28;20051;-66
2022/01/25 11:44:26;;;;;;;15.27;6.40;;;;;;;2.22;91.09;100123.44;5086909;28;20403;-71
2022/01/25 11:47:16;;;;;;;14.55;6.25;;;;;;;1.95;93.08;100125.50;5088495;28;20058;-66
2022/01/25 11:50:08;;;;;;;16.92;6.50;;;;;;;2.03;93.88;100115.06;5073772;28;20064;-67
2022/01/25 11:53:05;;;;;;;17.20;5.45;;;;;;;2.16;92.42;100113.19;5075789;28;20154;-67
2022/01/25 11:55:55;;;;;;;12.60;5.65;;;;;;;2.20;91.58;100120.00;5093935;28;20051;-64
2022/01/25 11:58:53;;;;;;;15.55;6.00;;;;;;;3.76;100.00;100118.53;5077757;28;20059;-39
2022/01/25 12:01:38;;;;;;;12.20;5.50;;;;;;;3.75;89.93;100101.28;5080362;28;20051;-59
2022/01/25 12:04:29;;;;;;;10.45;5.28;;;;;;;2.45;92.48;100104.19;5077254;28;20048;-68
2022/01/25 12:07:24;;;;;;;12.60;5.30;;;;;;;2.15;92.67;100110.63;5078985;28;20039;-65
2022/01/25 12:10:29;;;;;;;10.82;5.13;;;;;;;2.01;93.71;100115.97;5100031;28;20055;-59
2022/01/25 12:13:23;;;;;;;12.60;5.53;;;;;;;2.12;94.22;100116.69;5093379;28;20055;-65
2022/01/25 12:16:27;;;;;;;9.85;5.13;;;;;;;2.29;91.74;100111.28;5095101;28;20514;-63
2022/01/25 12:19:16;;;;;;;14.38;5.38;;;;;;;2.33;92.06;100118.13;5093714;28;20413;-62
2022/01/25 12:22:15;;;;;;;14.55;6.00;;;;;;;2.11;92.41;100127.03;5085376;28;20043;-63
2022/01/25 12:25:13;;;;;;;11.35;5.80;;;;;;;2.08;92.83;100122.75;5099191;28;20059;-63
2022/01/25 12:28:09;;;;;;;13.68;5.40;;;;;;;2.06;93.30;100112.44;5076119;28;20518;-63
2022/01/25 12:30:59;;;;;;;13.18;5.80;;;;;;;1.90;93.19;100116.06;5087969;28;20075;-64
2022/01/25 12:33:46;;;;;;;13.05;6.03;;;;;;;1.59;94.58;100118.09;5094247;28;20510;-66
2022/01/25 12:36:36;;;;;;;12.73;6.47;;;;;;;1.44;96.44;100118.22;5094462;28;20411;-64
2022/01/25 12:39:35;;;;;;;11.93;5.03;;;;;;;2.21;100.00;100087.25;5093822;28;20051;-59
2022/01/25 12:42:20;;;;;;;9.35;4.53;;;;;;;2.75;100.00;100103.78;5081940;28;20067;-56
2022/01/25 12:45:06;;;;;;;10.70;5.00;;;;;;;2.56;100.00;100108.38;5076032;28;20052;-59
2022/01/25 12:48:13;;;;;;;11.27;4.90;;;;;;;2.26;100.00;100089.78;5072635;28;20063;-60
2022/01/25 12:51:03;;;;;;;15.07;5.10;;;;;;;2.82;100.00;100109.72;5073237;28;20063;-53
2022/01/25 12:53:51;;;;;;;9.25;4.60;;;;;;;3.62;100.00;100100.66;5072390;28;20054;-58
2022/01/25 12:56:43;;;;;;;10.57;4.53;;;;;;;3.26;100.00;100107.31;5072691;28;20407;-60
2022/01/25 12:59:33;;;;;;;10.65;4.55;;;;;;;2.90;100.00;100094.06;5084975;28;20067;-63
2022/01/25 13:02:20;;;;;;;12.05;4.90;;;;;;;2.83;100.00;100103.66;5092591;28;20047;-60
2022/01/25 13:05:16;;;;;;;11.65;5.22;;;;;;;2.36;94.84;100106.03;5099382;28;20118;-58
2022/01/25 13:08:19;;;;;;;9.68;4.57;;;;;;;1.95;100.00;100101.34;5093178;28;20051;-59
2022/01/25 13:11:37;;;;;;;11.50;5.00;;;;;;;1.72;99.36;100105.91;5093118;28;20059;-59
2022/01/25 13:17:25;;;;;;;11.27;4.38;;;;;;;1.85;100.00;100103.19;5091823;28;20062;-60
2022/01/25 13:20:21;;;;;;;10.82;4.60;;;;;;;2.15;100.00;100098.56;5091395;28;20047;-57
2022/01/25 13:23:07;;;;;;;10.77;5.38;;;;;;;1.51;96.75;100100.94;5092965;28;20071;-59
2022/01/25 13:25:55;;;;;;;8.82;5.10;;;;;;;2.03;100.00;100089.19;5091879;28;20051;-58
2022/01/25 13:31:35;;;;;;;11.10;4.65;;;;;;;3.15;100.00;100083.31;5073609;28;20052;-58
2022/01/25 13:34:22;;;;;;;10.63;3.95;;;;;;;3.61;100.00;100073.03;5072323;28;20063;-58
2022/01/25 13:37:19;;;;;;;11.00;4.38;;;;;;;2.89;95.89;100067.31;5082374;28;20044;-59
2022/01/25 13:40:05;;;;;;;10.45;4.18;;;;;;;3.44;100.00;100079.38;5080490;28;20521;-58
2022/01/25 13:43:18;;;;;;;12.45;5.20;;;;;;;3.43;97.44;100067.28;5112891;28;20082;-63
2022/01/25 13:46:05;;;;;;;12.07;5.32;;;;;;;2.84;93.98;100079.47;5111761;28;20058;-66
2022/01/25 13:48:53;;;;;;;8.43;4.45;;;;;;;2.01;95.64;100077.19;5113260;28;20054;-67
2022/01/25 13:51:54;;;;;;;12.18;5.75;;;;;;;2.58;98.57;100081.59;5118142;28;20054;-66
2022/01/25 13:54:40;;;;;;;9.18;4.68;;;;;;;1.95;96.71;100075.50;5112436;28;20062;-64
2022/01/25 13:57:28;;;;;;;8.68;4.38;;;;;;;2.94;100.00;100080.19;5113146;28;20050;-46
2022/01/25 14:00:14;;;;;;;9.82;4.93;;;;;;;3.12;93.69;100068.66;5112709;28;20059;-65
2022/01/25 14:02:59;;;;;;;11.88;5.15;;;;;;;1.87;99.88;100074.75;5096061;28;20584;-64
2022/01/25 14:05:45;;;;;;;9.82;4.93;;;;;;;1.35;100.00;100067.53;5089849;28;20055;-65
2022/01/25 14:08:33;;;;;;;9.88;4.95;;;;;;;0.87;100.00;100063.63;5092060;28;20058;-64
2022/01/25 14:11:36;;;;;;;12.38;4.95;;;;;;;1.08;100.00;100062.59;5092129;28;20054;-63
2022/01/25 14:23:43;;;;;;;12.95;5.43;;;;;;;1.57;100.00;100052.66;5089847;28;20067;-63
2022/01/25 14:26:29;;;;;;;11.20;5.72;;;;;;;1.33;100.00;100054.63;5079370;28;20094;-60
2022/01/25 14:29:18;;;;;;;13.05;5.25;;;;;;;0.95;100.00;100053.25;5071629;28;20071;-60
2022/01/25 14:32:04;;;;;;;9.10;4.00;;;;;;;3.79;100.00;100026.00;5071613;28;20063;-56
2022/01/25 14:35:09;;;;;;;10.07;5.20;;;;;;;2.71;99.94;100021.88;5071394;28;20071;-61
2022/01/25 14:37:54;;;;;;;7.20;2.85;;;;;;;2.88;100.00;100037.13;5070482;28;20056;-45
2022/01/25 14:40:40;;;;;;;9.60;2.97;;;;;;;5.50;100.00;100035.00;5072702;28;20055;-62
2022/01/25 14:43:34;;;;;;;10.35;4.78;;;;;;;2.91;96.18;100046.56;5073147;28;20052;-63
2022/01/25 14:46:34;;;;;;;10.02;5.00;;;;;;;1.81;100.00;100035.16;5071593;28;20043;-61
2022/01/25 14:49:28;;;;;;;11.60;5.45;;;;;;;1.58;100.00;100043.19;5071597;28;20052;-59
2022/01/25 14:52:18;;;;;;;12.70;5.53;;;;;;;1.37;100.00;100052.03;5075907;28;20401;-63
2022/01/25 14:55:19;;;;;;;13.23;5.82;;;;;;;1.06;100.00;100048.00;5090523;28;20059;-60
2022/01/25 15:01:00;;;;;;;13.45;5.55;;;;;;;0.97;100.00;100062.69;5090710;28;20071;-62